Wilmington, OH

12:02 AM EDT on July 27, 2016 (GMT -0400)
2.2 N Wilmington | | Change Station

Elev 1053 ft 39.47 °N, 83.84 °W | Updated 2 minutes ago

Mostly Cloudy
Mostly Cloudy
75.6 °F
Feels Like 75 °F
N
0.0
Wind Variable Wind from ESE
Gusts 2.0 mph

Today
High -- | Low -- °F
--% Chance of Precip.
Yesterday
High -- | Low -- °F
Precip. -- in
Pressure 29.99 in
Visibility 6.0 miles
Clouds Few 4500 ft
Mostly Cloudy 5000 ft
Heat Index 75 °F
Dew Point 73 °F
Humidity 92%
Rainfall in
Snow Depth Not available.
6:31 AM 8:52 PM
Waning Gibbous, 48% visible
METAR KILN 270354Z AUTO 00000KT 6SM BR FEW045 BKN050 24/23 A3002 RMK AO2 RAB39E51 SLP153 P0000 T02390233
Pressure 29.99 in
Visibility 6.0 miles
Clouds Few 4500 ft
Mostly Cloudy 5000 ft
Heat Index 75 °F
Dew Point 73 °F
Humidity 92%
Rainfall in
Snow Depth Not available.
6:31 AM 8:52 PM
Waning Gibbous, 48% visible
METAR KILN 270354Z AUTO 00000KT 6SM BR FEW045 BKN050 24/23 A3002 RMK AO2 RAB39E51 SLP153 P0000 T02390233

10-Day Weather Forecast

Almanac

Astronomy

Jul. 27, 2016 Rise Set
Actual Time
Civil Twilight
Nautical Twilight
Astronomical Twilight
Moon
Length of Visible Light
Length of Day
Tomorrow will be .
, % of the Moon is Illuminated

Today's Extremes

State Highs State Lows

Community

WunderPhotos

Upload Photos

1,927,809 photos uploaded!

WunderBlog® & News

Nearby

Air Quality

  Air Quality AQ Index Pollutant
Not available.

Snow Depth

Station Depth Elevation

Earthquake Activity

City Distance Mag. Time & Date
Minimum magnitude displayed is 2.5.

Coastal Water Temperatures

Place Temperature

Stations

Nearby Weather Stations

Station Location Temp. Windchill Dew Point Humidity Wind Precip. Elev Updated Type
                   

Watches & Warnings

There are currently no watches in effect.